sensor_id;sensor_type;location;lat;lon;timestamp;P1;durP1;ratioP1;P2;durP2;ratioP2
20002;SDS011;10162;41.600;23.806;2022-07-29T00:00:28;15.60;;;14.00;;
20002;SDS011;10162;41.600;23.806;2022-07-29T00:02:54;17.93;;;15.10;;
20002;SDS011;10162;41.600;23.806;2022-07-29T00:08:29;17.23;;;15.03;;
20002;SDS011;10162;41.600;23.806;2022-07-29T00:10:55;18.23;;;15.97;;
20002;SDS011;10162;41.600;23.806;2022-07-29T00:13:20;18.77;;;15.43;;
20002;SDS011;10162;41.600;23.806;2022-07-29T00:19:33;17.03;;;15.23;;
20002;SDS011;10162;41.600;23.806;2022-07-29T00:21:59;20.93;;;16.87;;
20002;SDS011;10162;41.600;23.806;2022-07-29T00:24:26;16.77;;;15.10;;
20002;SDS011;10162;41.600;23.806;2022-07-29T00:29:55;17.77;;;14.93;;
20002;SDS011;10162;41.600;23.806;2022-07-29T00:32:21;16.77;;;14.87;;
20002;SDS011;10162;41.600;23.806;2022-07-29T00:34:47;16.10;;;14.40;;
20002;SDS011;10162;41.600;23.806;2022-07-29T00:37:31;16.43;;;14.73;;
20002;SDS011;10162;41.600;23.806;2022-07-29T00:39:57;17.00;;;14.93;;
20002;SDS011;10162;41.600;23.806;2022-07-29T00:42:23;21.63;;;14.93;;
20002;SDS011;10162;41.600;23.806;2022-07-29T00:44:48;19.60;;;14.00;;
20002;SDS011;10162;41.600;23.806;2022-07-29T00:47:21;17.17;;;13.93;;
20002;SDS011;10162;41.600;23.806;2022-07-29T00:49:47;15.60;;;13.13;;
20002;SDS011;10162;41.600;23.806;2022-07-29T00:52:13;14.73;;;13.17;;
20002;SDS011;10162;41.600;23.806;2022-07-29T00:54:39;17.13;;;13.93;;
20002;SDS011;10162;41.600;23.806;2022-07-29T01:00:24;15.87;;;13.77;;
20002;SDS011;10162;41.600;23.806;2022-07-29T01:02:52;15.40;;;12.70;;
20002;SDS011;10162;41.600;23.806;2022-07-29T01:09:05;14.53;;;12.87;;
20002;SDS011;10162;41.600;23.806;2022-07-29T01:11:32;14.83;;;13.20;;
20002;SDS011;10162;41.600;23.806;2022-07-29T01:14:00;17.23;;;13.30;;
20002;SDS011;10162;41.600;23.806;2022-07-29T01:23:15;15.90;;;13.13;;
20002;SDS011;10162;41.600;23.806;2022-07-29T01:29:38;14.50;;;12.67;;
20002;SDS011;10162;41.600;23.806;2022-07-29T01:32:22;15.17;;;12.90;;
20002;SDS011;10162;41.600;23.806;2022-07-29T01:34:53;15.47;;;12.90;;
20002;SDS011;10162;41.600;23.806;2022-07-29T01:43:39;15.37;;;13.07;;
20002;SDS011;10162;41.600;23.806;2022-07-29T01:49:51;13.20;;;11.60;;
20002;SDS011;10162;41.600;23.806;2022-07-29T01:52:27;13.20;;;11.83;;
20002;SDS011;10162;41.600;23.806;2022-07-29T01:55:00;15.23;;;11.83;;
20002;SDS011;10162;41.600;23.806;2022-07-29T01:57:34;13.37;;;11.97;;
20002;SDS011;10162;41.600;23.806;2022-07-29T02:00:03;15.30;;;12.20;;
20002;SDS011;10162;41.600;23.806;2022-07-29T02:02:37;14.03;;;12.53;;
20002;SDS011;10162;41.600;23.806;2022-07-29T02:05:06;17.33;;;13.10;;
20002;SDS011;10162;41.600;23.806;2022-07-29T02:07:35;23.00;;;12.53;;
20002;SDS011;10162;41.600;23.806;2022-07-29T02:10:03;15.20;;;12.87;;
20002;SDS011;10162;41.600;23.806;2022-07-29T02:12:31;14.70;;;12.67;;
20002;SDS011;10162;41.600;23.806;2022-07-29T02:14:59;15.73;;;12.87;;
20002;SDS011;10162;41.600;23.806;2022-07-29T02:17:33;14.90;;;12.97;;
20002;SDS011;10162;41.600;23.806;2022-07-29T02:20:04;16.87;;;12.33;;
20002;SDS011;10162;41.600;23.806;2022-07-29T02:22:33;15.47;;;13.03;;
20002;SDS011;10162;41.600;23.806;2022-07-29T02:25:02;15.77;;;13.60;;
20002;SDS011;10162;41.600;23.806;2022-07-29T02:27:29;15.30;;;12.47;;
20002;SDS011;10162;41.600;23.806;2022-07-29T02:29:58;16.30;;;12.77;;
20002;SDS011;10162;41.600;23.806;2022-07-29T02:32:27;13.77;;;12.30;;
20002;SDS011;10162;41.600;23.806;2022-07-29T02:34:54;13.90;;;11.70;;
20002;SDS011;10162;41.600;23.806;2022-07-29T02:41:13;14.33;;;12.27;;
20002;SDS011;10162;41.600;23.806;2022-07-29T02:43:43;14.73;;;12.87;;
20002;SDS011;10162;41.600;23.806;2022-07-29T02:58:52;14.40;;;12.90;;
20002;SDS011;10162;41.600;23.806;2022-07-29T03:01:22;16.23;;;11.93;;
20002;SDS011;10162;41.600;23.806;2022-07-29T03:03:50;14.77;;;12.60;;
20002;SDS011;10162;41.600;23.806;2022-07-29T03:10:06;15.57;;;11.90;;
20002;SDS011;10162;41.600;23.806;2022-07-29T03:12:34;16.23;;;13.03;;
20002;SDS011;10162;41.600;23.806;2022-07-29T03:15:00;15.73;;;12.93;;
20002;SDS011;10162;41.600;23.806;2022-07-29T03:17:27;15.97;;;13.27;;
20002;SDS011;10162;41.600;23.806;2022-07-29T03:19:53;16.73;;;12.30;;
20002;SDS011;10162;41.600;23.806;2022-07-29T03:22:20;14.77;;;12.40;;
20002;SDS011;10162;41.600;23.806;2022-07-29T03:24:46;19.57;;;13.67;;
20002;SDS011;10162;41.600;23.806;2022-07-29T03:30:36;14.47;;;12.23;;
20002;SDS011;10162;41.600;23.806;2022-07-29T03:33:02;20.40;;;13.03;;
20002;SDS011;10162;41.600;23.806;2022-07-29T03:39:17;16.60;;;13.63;;
20002;SDS011;10162;41.600;23.806;2022-07-29T03:41:46;14.43;;;12.93;;
20002;SDS011;10162;41.600;23.806;2022-07-29T03:44:15;15.13;;;12.63;;
20002;SDS011;10162;41.600;23.806;2022-07-29T03:50:30;13.40;;;11.87;;
20002;SDS011;10162;41.600;23.806;2022-07-29T03:52:58;14.83;;;12.03;;
20002;SDS011;10162;41.600;23.806;2022-07-29T03:58:37;15.37;;;12.27;;
20002;SDS011;10162;41.600;23.806;2022-07-29T04:01:04;15.43;;;11.97;;
20002;SDS011;10162;41.600;23.806;2022-07-29T04:03:31;13.63;;;12.00;;
20002;SDS011;10162;41.600;23.806;2022-07-29T04:09:44;14.90;;;12.20;;
20002;SDS011;10162;41.600;23.806;2022-07-29T04:12:10;15.47;;;13.07;;
20002;SDS011;10162;41.600;23.806;2022-07-29T04:14:35;15.13;;;12.90;;
20002;SDS011;10162;41.600;23.806;2022-07-29T04:17:08;15.20;;;13.00;;
20002;SDS011;10162;41.600;23.806;2022-07-29T04:19:34;16.10;;;12.50;;
20002;SDS011;10162;41.600;23.806;2022-07-29T04:22:00;14.57;;;12.47;;
20002;SDS011;10162;41.600;23.806;2022-07-29T04:24:26;17.53;;;13.10;;
20002;SDS011;10162;41.600;23.806;2022-07-29T04:29:38;14.30;;;12.13;;
20002;SDS011;10162;41.600;23.806;2022-07-29T04:32:04;18.67;;;13.23;;
20002;SDS011;10162;41.600;23.806;2022-07-29T04:34:30;13.60;;;12.20;;
20002;SDS011;10162;41.600;23.806;2022-07-29T04:39:33;17.87;;;12.47;;
20002;SDS011;10162;41.600;23.806;2022-07-29T04:41:59;15.40;;;13.17;;
20002;SDS011;10162;41.600;23.806;2022-07-29T04:44:24;18.40;;;13.00;;
20002;SDS011;10162;41.600;23.806;2022-07-29T04:46:50;19.23;;;12.63;;
20002;SDS011;10162;41.600;23.806;2022-07-29T04:49:16;16.23;;;12.40;;
20002;SDS011;10162;41.600;23.806;2022-07-29T04:51:42;13.70;;;12.20;;
20002;SDS011;10162;41.600;23.806;2022-07-29T04:54:08;14.77;;;12.17;;
20002;SDS011;10162;41.600;23.806;2022-07-29T04:56:38;14.57;;;12.70;;
20002;SDS011;10162;41.600;23.806;2022-07-29T04:59:04;14.30;;;12.80;;
20002;SDS011;10162;41.600;23.806;2022-07-29T05:01:30;16.40;;;13.13;;
20002;SDS011;10162;41.600;23.806;2022-07-29T05:03:55;13.33;;;12.00;;
20002;SDS011;10162;41.600;23.806;2022-07-29T05:06:21;15.27;;;12.63;;
20002;SDS011;10162;41.600;23.806;2022-07-29T05:08:47;13.73;;;12.27;;
20002;SDS011;10162;41.600;23.806;2022-07-29T05:11:12;16.23;;;13.13;;
20002;SDS011;10162;41.600;23.806;2022-07-29T05:13:38;15.63;;;12.50;;
20002;SDS011;10162;41.600;23.806;2022-07-29T05:18:35;14.60;;;12.83;;
20002;SDS011;10162;41.600;23.806;2022-07-29T05:21:01;14.43;;;12.73;;
20002;SDS011;10162;41.600;23.806;2022-07-29T05:23:27;14.37;;;12.47;;
20002;SDS011;10162;41.600;23.806;2022-07-29T05:28:40;13.97;;;12.30;;
20002;SDS011;10162;41.600;23.806;2022-07-29T05:31:05;15.97;;;12.43;;
20002;SDS011;10162;41.600;23.806;2022-07-29T05:33:31;16.80;;;12.43;;
20002;SDS011;10162;41.600;23.806;2022-07-29T05:38:49;15.10;;;11.83;;
20002;SDS011;10162;41.600;23.806;2022-07-29T05:41:17;14.33;;;11.90;;
20002;SDS011;10162;41.600;23.806;2022-07-29T05:43:43;14.33;;;12.83;;
20002;SDS011;10162;41.600;23.806;2022-07-29T05:46:16;15.93;;;12.43;;
20002;SDS011;10162;41.600;23.806;2022-07-29T05:48:42;13.40;;;11.70;;
20002;SDS011;10162;41.600;23.806;2022-07-29T05:51:07;12.70;;;11.40;;
20002;SDS011;10162;41.600;23.806;2022-07-29T05:53:33;14.32;;;12.43;;
20002;SDS011;10162;41.600;23.806;2022-07-29T05:56:02;13.52;;;12.00;;
20002;SDS011;10162;41.600;23.806;2022-07-29T05:58:29;14.07;;;12.57;;
20002;SDS011;10162;41.600;23.806;2022-07-29T06:00:55;14.13;;;11.70;;
20002;SDS011;10162;41.600;23.806;2022-07-29T06:03:24;14.40;;;12.15;;
20002;SDS011;10162;41.600;23.806;2022-07-29T06:05:50;15.82;;;14.20;;
20002;SDS011;10162;41.600;23.806;2022-07-29T06:08:16;16.33;;;12.23;;
20002;SDS011;10162;41.600;23.806;2022-07-29T06:10:42;14.00;;;10.98;;
20002;SDS011;10162;41.600;23.806;2022-07-29T06:13:08;13.80;;;11.30;;
20002;SDS011;10162;41.600;23.806;2022-07-29T06:15:35;17.08;;;12.75;;
20002;SDS011;10162;41.600;23.806;2022-07-29T06:18:00;12.50;;;11.00;;
20002;SDS011;10162;41.600;23.806;2022-07-29T06:20:29;20.02;;;12.40;;
20002;SDS011;10162;41.600;23.806;2022-07-29T06:22:56;13.15;;;11.30;;
20002;SDS011;10162;41.600;23.806;2022-07-29T06:25:22;16.10;;;10.95;;
20002;SDS011;10162;41.600;23.806;2022-07-29T06:27:47;12.10;;;10.90;;
20002;SDS011;10162;41.600;23.806;2022-07-29T06:30:13;18.15;;;11.40;;
20002;SDS011;10162;41.600;23.806;2022-07-29T06:32:39;22.70;;;12.05;;
20002;SDS011;10162;41.600;23.806;2022-07-29T06:35:05;12.90;;;11.45;;
20002;SDS011;10162;41.600;23.806;2022-07-29T06:37:31;14.02;;;11.65;;
20002;SDS011;10162;41.600;23.806;2022-07-29T06:39:56;14.38;;;11.15;;
20002;SDS011;10162;41.600;23.806;2022-07-29T06:42:48;14.57;;;12.05;;
20002;SDS011;10162;41.600;23.806;2022-07-29T06:45:14;14.18;;;11.07;;
20002;SDS011;10162;41.600;23.806;2022-07-29T06:47:41;16.30;;;10.40;;
20002;SDS011;10162;41.600;23.806;2022-07-29T06:50:07;13.07;;;11.65;;
20002;SDS011;10162;41.600;23.806;2022-07-29T06:52:36;13.20;;;11.50;;
20002;SDS011;10162;41.600;23.806;2022-07-29T06:55:02;16.20;;;11.45;;
20002;SDS011;10162;41.600;23.806;2022-07-29T06:57:28;13.10;;;11.75;;
20002;SDS011;10162;41.600;23.806;2022-07-29T06:59:55;12.45;;;11.15;;
20002;SDS011;10162;41.600;23.806;2022-07-29T07:02:21;12.38;;;11.15;;
20002;SDS011;10162;41.600;23.806;2022-07-29T07:04:47;13.38;;;11.60;;
20002;SDS011;10162;41.600;23.806;2022-07-29T07:07:13;15.13;;;11.32;;
20002;SDS011;10162;41.600;23.806;2022-07-29T07:09:39;12.30;;;11.13;;
20002;SDS011;10162;41.600;23.806;2022-07-29T07:12:05;16.25;;;11.32;;
20002;SDS011;10162;41.600;23.806;2022-07-29T07:14:31;15.90;;;11.70;;
20002;SDS011;10162;41.600;23.806;2022-07-29T07:17:06;11.85;;;10.57;;
20002;SDS011;10162;41.600;23.806;2022-07-29T07:19:32;14.80;;;11.45;;
20002;SDS011;10162;41.600;23.806;2022-07-29T07:21:57;12.35;;;11.05;;
20002;SDS011;10162;41.600;23.806;2022-07-29T07:24:23;16.10;;;12.77;;
20002;SDS011;10162;41.600;23.806;2022-07-29T07:26:49;12.60;;;11.30;;
20002;SDS011;10162;41.600;23.806;2022-07-29T07:29:16;11.43;;;10.32;;
20002;SDS011;10162;41.600;23.806;2022-07-29T07:31:41;11.27;;;10.23;;
20002;SDS011;10162;41.600;23.806;2022-07-29T07:34:07;11.98;;;10.88;;
20002;SDS011;10162;41.600;23.806;2022-07-29T07:36:35;12.52;;;11.23;;
20002;SDS011;10162;41.600;23.806;2022-07-29T07:39:01;12.48;;;11.38;;
20002;SDS011;10162;41.600;23.806;2022-07-29T07:41:27;14.55;;;12.13;;
20002;SDS011;10162;41.600;23.806;2022-07-29T07:43:53;13.00;;;11.77;;
20002;SDS011;10162;41.600;23.806;2022-07-29T07:46:21;11.80;;;10.35;;
20002;SDS011;10162;41.600;23.806;2022-07-29T07:48:47;13.27;;;10.77;;
20002;SDS011;10162;41.600;23.806;2022-07-29T07:51:12;12.05;;;10.95;;
20002;SDS011;10162;41.600;23.806;2022-07-29T07:53:38;12.93;;;11.77;;
20002;SDS011;10162;41.600;23.806;2022-07-29T07:56:10;13.80;;;11.45;;
20002;SDS011;10162;41.600;23.806;2022-07-29T07:58:36;13.07;;;10.45;;
20002;SDS011;10162;41.600;23.806;2022-07-29T08:01:02;12.57;;;11.40;;
20002;SDS011;10162;41.600;23.806;2022-07-29T08:03:29;14.23;;;11.25;;
20002;SDS011;10162;41.600;23.806;2022-07-29T08:05:58;14.27;;;11.88;;
20002;SDS011;10162;41.600;23.806;2022-07-29T08:08:23;15.27;;;11.70;;
20002;SDS011;10162;41.600;23.806;2022-07-29T08:10:50;13.07;;;11.80;;
20002;SDS011;10162;41.600;23.806;2022-07-29T08:13:25;12.90;;;11.50;;
20002;SDS011;10162;41.600;23.806;2022-07-29T08:18:53;13.07;;;11.77;;
20002;SDS011;10162;41.600;23.806;2022-07-29T08:21:24;11.95;;;10.82;;
20002;SDS011;10162;41.600;23.806;2022-07-29T08:23:51;12.45;;;11.30;;
20002;SDS011;10162;41.600;23.806;2022-07-29T08:26:44;12.48;;;11.13;;
20002;SDS011;10162;41.600;23.806;2022-07-29T08:29:10;12.82;;;11.52;;
20002;SDS011;10162;41.600;23.806;2022-07-29T08:31:36;12.45;;;11.25;;
20002;SDS011;10162;41.600;23.806;2022-07-29T08:34:03;13.30;;;11.40;;
20002;SDS011;10162;41.600;23.806;2022-07-29T08:36:48;12.07;;;10.90;;
20002;SDS011;10162;41.600;23.806;2022-07-29T08:39:14;12.60;;;11.25;;
20002;SDS011;10162;41.600;23.806;2022-07-29T08:41:39;12.57;;;11.35;;
20002;SDS011;10162;41.600;23.806;2022-07-29T08:44:05;12.70;;;11.50;;
20002;SDS011;10162;41.600;23.806;2022-07-29T08:50:19;13.15;;;11.90;;
20002;SDS011;10162;41.600;23.806;2022-07-29T08:53:32;14.02;;;11.07;;
20002;SDS011;10162;41.600;23.806;2022-07-29T09:00:05;13.23;;;11.85;;
20002;SDS011;10162;41.600;23.806;2022-07-29T09:02:35;12.15;;;11.05;;
20002;SDS011;10162;41.600;23.806;2022-07-29T09:05:13;12.23;;;10.93;;
20002;SDS011;10162;41.600;23.806;2022-07-29T09:07:39;13.32;;;10.35;;
20002;SDS011;10162;41.600;23.806;2022-07-29T09:10:08;12.43;;;10.27;;
20002;SDS011;10162;41.600;23.806;2022-07-29T09:12:34;12.13;;;10.55;;
20002;SDS011;10162;41.600;23.806;2022-07-29T09:15:05;10.73;;;9.75;;
20002;SDS011;10162;41.600;23.806;2022-07-29T09:20:27;12.93;;;9.93;;
20002;SDS011;10162;41.600;23.806;2022-07-29T09:23:13;12.18;;;9.70;;
20002;SDS011;10162;41.600;23.806;2022-07-29T09:28:12;10.10;;;9.10;;
20002;SDS011;10162;41.600;23.806;2022-07-29T09:30:49;9.43;;;8.45;;
20002;SDS011;10162;41.600;23.806;2022-07-29T09:33:16;9.45;;;8.52;;
20002;SDS011;10162;41.600;23.806;2022-07-29T09:35:42;8.98;;;8.10;;
20002;SDS011;10162;41.600;23.806;2022-07-29T09:38:11;11.55;;;9.20;;
20002;SDS011;10162;41.600;23.806;2022-07-29T09:40:38;10.90;;;9.30;;
20002;SDS011;10162;41.600;23.806;2022-07-29T09:43:11;9.77;;;8.88;;
20002;SDS011;10162;41.600;23.806;2022-07-29T09:45:39;16.67;;;9.02;;
20002;SDS011;10162;41.600;23.806;2022-07-29T09:48:15;9.55;;;8.55;;
20002;SDS011;10162;41.600;23.806;2022-07-29T09:50:46;9.30;;;8.52;;
20002;SDS011;10162;41.600;23.806;2022-07-29T09:53:34;9.57;;;8.60;;
20002;SDS011;10162;41.600;23.806;2022-07-29T10:00:11;9.90;;;9.00;;
20002;SDS011;10162;41.600;23.806;2022-07-29T10:02:42;8.88;;;8.15;;
20002;SDS011;10162;41.600;23.806;2022-07-29T10:08:07;9.98;;;9.07;;
20002;SDS011;10162;41.600;23.806;2022-07-29T10:10:40;10.35;;;8.57;;
20002;SDS011;10162;41.600;23.806;2022-07-29T10:13:08;9.38;;;8.48;;
20002;SDS011;10162;41.600;23.806;2022-07-29T10:19:23;10.00;;;9.00;;
20002;SDS011;10162;41.600;23.806;2022-07-29T10:21:50;10.52;;;8.88;;
20002;SDS011;10162;41.600;23.806;2022-07-29T10:24:17;10.10;;;9.10;;
20002;SDS011;10162;41.600;23.806;2022-07-29T10:30:31;10.30;;;9.23;;
20002;SDS011;10162;41.600;23.806;2022-07-29T10:44:45;9.50;;;7.93;;
20002;SDS011;10162;41.600;23.806;2022-07-29T10:56:29;8.40;;;7.47;;
20002;SDS011;10162;41.600;23.806;2022-07-29T10:59:46;8.38;;;7.57;;
20002;SDS011;10162;41.600;23.806;2022-07-29T11:01:53;8.55;;;7.60;;
20002;SDS011;10162;41.600;23.806;2022-07-29T11:07:21;8.23;;;7.43;;
20002;SDS011;10162;41.600;23.806;2022-07-29T11:15:26;7.45;;;6.60;;
20002;SDS011;10162;41.600;23.806;2022-07-29T11:22:56;7.05;;;6.43;;
20002;SDS011;10162;41.600;23.806;2022-07-29T11:31:45;6.28;;;5.68;;
20002;SDS011;10162;41.600;23.806;2022-07-29T11:40:42;8.50;;;5.60;;
20002;SDS011;10162;41.600;23.806;2022-07-29T11:43:56;7.50;;;5.60;;
20002;SDS011;10162;41.600;23.806;2022-07-29T11:49:39;7.07;;;5.72;;
20002;SDS011;10162;41.600;23.806;2022-07-29T11:52:11;7.68;;;5.63;;
20002;SDS011;10162;41.600;23.806;2022-07-29T11:54:36;6.88;;;6.28;;
20002;SDS011;10162;41.600;23.806;2022-07-29T12:00:04;6.10;;;5.43;;
20002;SDS011;10162;41.600;23.806;2022-07-29T12:02:41;6.05;;;5.47;;
20002;SDS011;10162;41.600;23.806;2022-07-29T12:08:55;6.55;;;6.03;;
20002;SDS011;10162;41.600;23.806;2022-07-29T12:11:22;21.83;;;6.90;;
20002;SDS011;10162;41.600;23.806;2022-07-29T12:13:48;6.35;;;5.75;;
20002;SDS011;10162;41.600;23.806;2022-07-29T12:20:03;6.97;;;6.38;;
20002;SDS011;10162;41.600;23.806;2022-07-29T12:22:31;6.57;;;6.00;;
20002;SDS011;10162;41.600;23.806;2022-07-29T12:25:03;6.68;;;6.07;;
20002;SDS011;10162;41.600;23.806;2022-07-29T12:27:31;6.13;;;5.63;;
20002;SDS011;10162;41.600;23.806;2022-07-29T12:29:58;6.45;;;5.85;;
20002;SDS011;10162;41.600;23.806;2022-07-29T12:32:33;8.20;;;6.10;;
20002;SDS011;10162;41.600;23.806;2022-07-29T12:38:50;7.10;;;6.50;;
20002;SDS011;10162;41.600;23.806;2022-07-29T12:41:16;8.27;;;7.05;;
20002;SDS011;10162;41.600;23.806;2022-07-29T12:43:51;7.97;;;7.07;;
20002;SDS011;10162;41.600;23.806;2022-07-29T12:50:13;8.38;;;7.57;;
20002;SDS011;10162;41.600;23.806;2022-07-29T12:52:43;7.50;;;6.80;;
20002;SDS011;10162;41.600;23.806;2022-07-29T12:55:12;9.07;;;7.43;;
20002;SDS011;10162;41.600;23.806;2022-07-29T12:57:47;7.53;;;6.82;;
20002;SDS011;10162;41.600;23.806;2022-07-29T13:00:21;8.55;;;7.13;;
20002;SDS011;10162;41.600;23.806;2022-07-29T13:02:59;8.02;;;7.03;;
20002;SDS011;10162;41.600;23.806;2022-07-29T13:11:30;8.98;;;8.18;;
20002;SDS011;10162;41.600;23.806;2022-07-29T13:14:02;8.10;;;7.40;;
20002;SDS011;10162;41.600;23.806;2022-07-29T13:20:15;10.00;;;7.78;;
20002;SDS011;10162;41.600;23.806;2022-07-29T13:22:41;7.90;;;7.13;;
20002;SDS011;10162;41.600;23.806;2022-07-29T13:28:54;8.50;;;7.70;;
20002;SDS011;10162;41.600;23.806;2022-07-29T13:31:20;8.02;;;7.30;;
20002;SDS011;10162;41.600;23.806;2022-07-29T13:33:47;9.15;;;7.80;;
20002;SDS011;10162;41.600;23.806;2022-07-29T13:40:00;8.38;;;7.57;;
20002;SDS011;10162;41.600;23.806;2022-07-29T13:42:28;8.13;;;7.43;;
20002;SDS011;10162;41.600;23.806;2022-07-29T13:44:54;7.93;;;6.78;;
20002;SDS011;10162;41.600;23.806;2022-07-29T13:51:07;8.80;;;8.05;;
20002;SDS011;10162;41.600;23.806;2022-07-29T13:53:33;8.48;;;7.68;;
20002;SDS011;10162;41.600;23.806;2022-07-29T13:59:46;8.73;;;7.97;;
20002;SDS011;10162;41.600;23.806;2022-07-29T14:02:12;8.05;;;7.18;;
20002;SDS011;10162;41.600;23.806;2022-07-29T14:04:38;8.43;;;7.72;;
20002;SDS011;10162;41.600;23.806;2022-07-29T14:30:07;8.90;;;8.10;;
20002;SDS011;10162;41.600;23.806;2022-07-29T14:35:42;8.60;;;7.80;;
20002;SDS011;10162;41.600;23.806;2022-07-29T14:38:08;7.75;;;7.05;;
20002;SDS011;10162;41.600;23.806;2022-07-29T14:43:34;8.77;;;7.97;;
20002;SDS011;10162;41.600;23.806;2022-07-29T14:46:00;7.80;;;7.18;;
20002;SDS011;10162;41.600;23.806;2022-07-29T14:48:26;7.93;;;7.22;;
20002;SDS011;10162;41.600;23.806;2022-07-29T14:54:39;7.95;;;7.30;;
20002;SDS011;10162;41.600;23.806;2022-07-29T14:57:05;7.45;;;6.75;;
20002;SDS011;10162;41.600;23.806;2022-07-29T14:59:31;8.90;;;8.00;;
20002;SDS011;10162;41.600;23.806;2022-07-29T15:04:25;7.43;;;6.72;;
20002;SDS011;10162;41.600;23.806;2022-07-29T15:06:51;7.18;;;6.53;;
20002;SDS011;10162;41.600;23.806;2022-07-29T15:09:17;7.30;;;5.95;;
20002;SDS011;10162;41.600;23.806;2022-07-29T15:11:43;7.43;;;6.82;;
20002;SDS011;10162;41.600;23.806;2022-07-29T15:14:09;8.50;;;7.70;;
20002;SDS011;10162;41.600;23.806;2022-07-29T15:16:35;8.50;;;7.70;;
20002;SDS011;10162;41.600;23.806;2022-07-29T15:19:02;8.60;;;7.88;;
20002;SDS011;10162;41.600;23.806;2022-07-29T15:24:30;7.68;;;6.93;;
20002;SDS011;10162;41.600;23.806;2022-07-29T15:26:56;7.30;;;6.68;;
20002;SDS011;10162;41.600;23.806;2022-07-29T15:29:22;7.43;;;6.68;;
20002;SDS011;10162;41.600;23.806;2022-07-29T15:34:25;6.45;;;5.82;;
20002;SDS011;10162;41.600;23.806;2022-07-29T15:36:51;6.28;;;5.78;;
20002;SDS011;10162;41.600;23.806;2022-07-29T15:39:17;6.95;;;6.20;;
20002;SDS011;10162;41.600;23.806;2022-07-29T15:45:34;9.73;;;6.47;;
20002;SDS011;10162;41.600;23.806;2022-07-29T15:48:02;6.57;;;5.97;;
20002;SDS011;10162;41.600;23.806;2022-07-29T15:54:16;10.15;;;7.93;;
20002;SDS011;10162;41.600;23.806;2022-07-29T15:56:42;11.27;;;10.18;;
20002;SDS011;10162;41.600;23.806;2022-07-29T15:59:08;11.13;;;9.48;;
20002;SDS011;10162;41.600;23.806;2022-07-29T16:05:20;8.73;;;7.50;;
20002;SDS011;10162;41.600;23.806;2022-07-29T16:07:47;10.73;;;8.55;;
20002;SDS011;10162;41.600;23.806;2022-07-29T16:10:13;8.77;;;7.97;;
20002;SDS011;10162;41.600;23.806;2022-07-29T16:16:25;8.40;;;7.63;;
20002;SDS011;10162;41.600;23.806;2022-07-29T16:18:51;8.70;;;8.00;;
20002;SDS011;10162;41.600;23.806;2022-07-29T16:25:03;8.45;;;7.75;;
20002;SDS011;10162;41.600;23.806;2022-07-29T16:27:29;12.45;;;11.35;;
20002;SDS011;10162;41.600;23.806;2022-07-29T16:29:55;16.58;;;10.85;;
20002;SDS011;10162;41.600;23.806;2022-07-29T16:36:08;29.08;;;25.08;;
20002;SDS011;10162;41.600;23.806;2022-07-29T16:38:34;9.90;;;8.88;;
20002;SDS011;10162;41.600;23.806;2022-07-29T16:44:47;10.57;;;7.93;;
20002;SDS011;10162;41.600;23.806;2022-07-29T16:47:13;8.75;;;7.85;;
20002;SDS011;10162;41.600;23.806;2022-07-29T16:49:39;9.18;;;8.13;;
20002;SDS011;10162;41.600;23.806;2022-07-29T16:55:51;10.82;;;9.73;;
20002;SDS011;10162;41.600;23.806;2022-07-29T16:58:17;11.05;;;7.95;;
20002;SDS011;10162;41.600;23.806;2022-07-29T17:04:30;10.13;;;8.32;;
20002;SDS011;10162;41.600;23.806;2022-07-29T17:06:56;9.43;;;8.52;;
20002;SDS011;10162;41.600;23.806;2022-07-29T17:09:22;8.60;;;7.80;;
20002;SDS011;10162;41.600;23.806;2022-07-29T17:15:35;8.18;;;7.47;;
20002;SDS011;10162;41.600;23.806;2022-07-29T17:18:01;8.00;;;7.30;;
20002;SDS011;10162;41.600;23.806;2022-07-29T17:24:14;8.40;;;7.55;;
20002;SDS011;10162;41.600;23.806;2022-07-29T17:26:40;8.07;;;7.10;;
20002;SDS011;10162;41.600;23.806;2022-07-29T17:29:07;13.52;;;9.65;;
20002;SDS011;10162;41.600;23.806;2022-07-29T17:35:34;8.20;;;7.38;;
20002;SDS011;10162;41.600;23.806;2022-07-29T17:38:18;8.35;;;7.55;;
20002;SDS011;10162;41.600;23.806;2022-07-29T17:44:31;7.32;;;6.70;;
20002;SDS011;10162;41.600;23.806;2022-07-29T17:46:57;7.97;;;7.18;;
20002;SDS011;10162;41.600;23.806;2022-07-29T17:49:23;9.02;;;7.85;;
20002;SDS011;10162;41.600;23.806;2022-07-29T17:55:36;10.90;;;9.15;;
20002;SDS011;10162;41.600;23.806;2022-07-29T17:58:04;10.98;;;9.07;;
20002;SDS011;10162;41.600;23.806;2022-07-29T18:04:20;13.95;;;8.77;;
20002;SDS011;10162;41.600;23.806;2022-07-29T18:06:47;11.20;;;8.85;;
20002;SDS011;10162;41.600;23.806;2022-07-29T18:09:13;9.57;;;8.73;;
20002;SDS011;10162;41.600;23.806;2022-07-29T18:15:25;10.15;;;8.27;;
20002;SDS011;10162;41.600;23.806;2022-07-29T18:17:51;10.00;;;8.85;;
20002;SDS011;10162;41.600;23.806;2022-07-29T18:20:16;10.30;;;8.30;;
20002;SDS011;10162;41.600;23.806;2022-07-29T18:22:42;9.25;;;8.35;;
20002;SDS011;10162;41.600;23.806;2022-07-29T18:25:08;9.98;;;7.88;;
20002;SDS011;10162;41.600;23.806;2022-07-29T18:27:34;9.63;;;8.32;;
20002;SDS011;10162;41.600;23.806;2022-07-29T18:29:59;10.02;;;9.05;;
20002;SDS011;10162;41.600;23.806;2022-07-29T18:36:13;10.75;;;9.02;;
20002;SDS011;10162;41.600;23.806;2022-07-29T18:38:39;9.90;;;8.95;;
20002;SDS011;10162;41.600;23.806;2022-07-29T18:44:52;10.13;;;8.82;;
20002;SDS011;10162;41.600;23.806;2022-07-29T18:47:18;9.32;;;8.43;;
20002;SDS011;10162;41.600;23.806;2022-07-29T18:49:44;9.00;;;8.10;;
20002;SDS011;10162;41.600;23.806;2022-07-29T18:55:57;9.77;;;8.82;;
20002;SDS011;10162;41.600;23.806;2022-07-29T18:58:25;10.25;;;9.15;;
20002;SDS011;10162;41.600;23.806;2022-07-29T19:04:38;9.00;;;8.13;;
20002;SDS011;10162;41.600;23.806;2022-07-29T19:07:04;10.00;;;8.93;;
20002;SDS011;10162;41.600;23.806;2022-07-29T19:09:29;10.85;;;7.95;;
20002;SDS011;10162;41.600;23.806;2022-07-29T19:15:42;9.30;;;8.40;;
20002;SDS011;10162;41.600;23.806;2022-07-29T19:18:09;8.88;;;8.05;;
20002;SDS011;10162;41.600;23.806;2022-07-29T19:24:24;9.23;;;8.20;;
20002;SDS011;10162;41.600;23.806;2022-07-29T19:26:50;10.68;;;8.07;;
20002;SDS011;10162;41.600;23.806;2022-07-29T19:29:15;9.23;;;7.40;;
20002;SDS011;10162;41.600;23.806;2022-07-29T19:35:28;7.95;;;7.25;;
20002;SDS011;10162;41.600;23.806;2022-07-29T19:37:57;9.15;;;7.88;;
20002;SDS011;10162;41.600;23.806;2022-07-29T19:40:25;8.20;;;7.50;;
20002;SDS011;10162;41.600;23.806;2022-07-29T19:42:52;6.75;;;6.15;;
20002;SDS011;10162;41.600;23.806;2022-07-29T19:45:19;8.60;;;7.80;;
20002;SDS011;10162;41.600;23.806;2022-07-29T19:47:46;8.18;;;7.38;;
20002;SDS011;10162;41.600;23.806;2022-07-29T19:50:12;6.95;;;6.25;;
20002;SDS011;10162;41.600;23.806;2022-07-29T19:56:26;7.68;;;6.95;;
20002;SDS011;10162;41.600;23.806;2022-07-29T19:58:54;8.30;;;7.43;;
20002;SDS011;10162;41.600;23.806;2022-07-29T20:05:08;7.13;;;6.43;;
20002;SDS011;10162;41.600;23.806;2022-07-29T20:07:35;7.38;;;6.65;;
20002;SDS011;10162;41.600;23.806;2022-07-29T20:10:02;8.68;;;6.80;;
20002;SDS011;10162;41.600;23.806;2022-07-29T20:16:16;11.25;;;6.95;;